Time;durP1;ratioP1;P1;durP2;ratioP2;P2;SDS_P1;SDS_P2;PMS_P1;PMS_P2;Temp;Humidity;BMP_temperature;BMP_pressure;BME280_temperature;BME280_humidity;BME280_pressure;Samples;Min_cycle;Max_cycle;Signal;HPM_P1;HPM_P2
2020/12/10 00:02:12;;;;;;;87.45;37.63;;;2.90;93.20;;;;;;5015146;28;20202;-78
2020/12/10 00:04:38;;;;;;;37.22;33.63;;;2.90;95.10;;;;;;5014722;28;20650;-78
2020/12/10 00:07:04;;;;;;;37.38;33.58;;;2.80;93.90;;;;;;5014737;28;20284;-78
2020/12/10 00:09:32;;;;;;;37.88;34.17;;;2.80;92.90;;;;;;5014960;28;20233;-78
2020/12/10 00:12:00;;;;;;;35.55;31.95;;;2.80;92.60;;;;;;5014981;28;20540;-78
2020/12/10 00:14:27;;;;;;;35.63;32.20;;;2.80;92.30;;;;;;5014809;28;20204;-78
2020/12/10 00:16:53;;;;;;;36.60;33.30;;;2.90;92.10;;;;;;5014558;28;20738;-78
2020/12/10 00:19:21;;;;;;;37.92;34.28;;;2.90;91.70;;;;;;5014600;28;20229;-78
2020/12/10 00:21:47;;;;;;;36.40;32.60;;;2.70;91.10;;;;;;5014806;28;20202;-78
2020/12/10 00:24:14;;;;;;;37.45;33.85;;;2.70;91.20;;;;;;5014761;28;20197;-78
2020/12/10 00:26:41;;;;;;;35.47;32.00;;;2.70;91.40;;;;;;5014221;28;20560;-78
2020/12/10 00:29:08;;;;;;;35.75;32.47;;;2.70;93.90;;;;;;5014684;28;20190;-78
2020/12/10 00:31:37;;;;;;;36.53;33.05;;;3.00;92.20;;;;;;5014224;28;20190;-78
2020/12/10 00:34:04;;;;;;;36.22;32.83;;;2.90;92.60;;;;;;5014647;28;20198;-78
2020/12/10 00:36:32;;;;;;;45.22;33.78;;;2.90;92.30;;;;;;5014338;28;20218;-78
2020/12/10 00:38:58;;;;;;;36.45;32.85;;;2.90;93.90;;;;;;5018398;28;20208;-78
2020/12/10 00:41:24;;;;;;;36.65;32.90;;;3.00;92.40;;;;;;5020365;28;20194;-78
2020/12/10 00:43:50;;;;;;;36.10;32.60;;;3.00;92.10;;;;;;5016759;28;20313;-78
2020/12/10 00:46:17;;;;;;;35.10;31.58;;;3.10;92.20;;;;;;5014199;28;20226;-78
2020/12/10 00:48:43;;;;;;;35.35;32.03;;;3.00;91.20;;;;;;5014316;28;20208;-78
2020/12/10 00:51:09;;;;;;;36.10;32.58;;;2.90;91.10;;;;;;5014278;28;20686;-78
2020/12/10 00:53:37;;;;;;;33.58;30.40;;;2.90;91.40;;;;;;5014434;28;20194;-78
2020/12/10 00:56:03;;;;;;;34.63;31.30;;;2.90;90.50;;;;;;5013983;28;20218;-78
2020/12/10 00:58:29;;;;;;;37.55;33.75;;;2.90;90.20;;;;;;5014214;28;20194;-78
2020/12/10 01:00:56;;;;;;;36.35;32.75;;;3.00;90.40;;;;;;5014077;28;20224;-78
2020/12/10 01:03:22;;;;;;;37.22;33.67;;;2.90;90.50;;;;;;5013704;28;20555;-78
2020/12/10 01:05:48;;;;;;;56.65;34.70;;;2.80;90.90;;;;;;5013873;28;20202;-78
2020/12/10 01:08:15;;;;;;;34.55;31.10;;;2.80;92.20;;;;;;5013439;28;20198;-78
2020/12/10 01:10:42;;;;;;;36.20;32.67;;;2.90;94.20;;;;;;5014096;28;20208;-78
2020/12/10 01:13:08;;;;;;;35.58;32.25;;;3.00;91.30;;;;;;5013649;28;20200;-78
2020/12/10 01:15:35;;;;;;;35.10;31.83;;;2.90;90.10;;;;;;5013396;28;20673;-78
2020/12/10 01:18:01;;;;;;;34.08;30.98;;;2.80;89.40;;;;;;5013837;28;20202;-78
2020/12/10 01:20:28;;;;;;;36.17;32.67;;;2.80;89.50;;;;;;5013637;28;20224;-78
2020/12/10 01:22:54;;;;;;;36.45;32.78;;;2.80;90.60;;;;;;5013593;28;20194;-78
2020/12/10 01:25:20;;;;;;;36.50;33.00;;;2.80;91.20;;;;;;5013673;28;20198;-78
2020/12/10 01:27:47;;;;;;;35.97;32.65;;;2.80;91.10;;;;;;5013475;28;20224;-78
2020/12/10 01:30:14;;;;;;;36.58;33.17;;;2.90;91.30;;;;;;5013636;28;20198;-78
2020/12/10 01:32:40;;;;;;;35.15;31.80;;;2.80;90.50;;;;;;5013258;28;20198;-78
2020/12/10 01:35:09;;;;;;;35.85;32.25;;;2.80;92.80;;;;;;5013553;28;20198;-78
2020/12/10 01:37:35;;;;;;;36.47;32.78;;;2.90;91.80;;;;;;5013380;28;20611;-78
2020/12/10 01:40:03;;;;;;;35.38;32.00;;;2.90;92.00;;;;;;5013224;28;20214;-78
2020/12/10 01:42:29;;;;;;;34.75;31.35;;;2.80;90.50;;;;;;5013473;28;20205;-78
2020/12/10 01:44:56;;;;;;;32.72;29.73;;;2.80;90.40;;;;;;5013302;28;20197;-78
2020/12/10 01:47:24;;;;;;;33.50;30.60;;;2.80;89.80;;;;;;5013343;28;20217;-78
2020/12/10 01:49:51;;;;;;;34.50;31.15;;;2.80;87.30;;;;;;5013149;28;20194;-78
2020/12/10 01:52:17;;;;;;;34.35;31.10;;;2.70;87.10;;;;;;5013105;28;20194;-78
2020/12/10 01:54:44;;;;;;;35.60;32.25;;;2.60;87.20;;;;;;5013703;28;20614;-78
2020/12/10 01:57:10;;;;;;;35.78;32.35;;;2.70;87.10;;;;;;5013599;28;20699;-78
2020/12/10 01:59:37;;;;;;;34.65;31.55;;;2.70;87.40;;;;;;5013369;28;20221;-78
2020/12/10 02:02:04;;;;;;;33.30;30.20;;;2.80;86.60;;;;;;5012750;28;20727;-78
2020/12/10 02:04:33;;;;;;;33.55;30.55;;;2.90;86.30;;;;;;5013560;28;20679;-78
2020/12/10 02:07:00;;;;;;;35.58;32.17;;;2.90;85.30;;;;;;5012946;28;20226;-78
2020/12/10 02:09:27;;;;;;;36.28;32.90;;;2.70;85.60;;;;;;5013180;28;20284;-78
2020/12/10 02:11:53;;;;;;;35.85;32.55;;;2.60;86.40;;;;;;5013086;28;20202;-78
2020/12/10 02:14:20;;;;;;;34.03;31.08;;;2.50;86.80;;;;;;5012464;28;20202;-78
2020/12/10 02:16:46;;;;;;;33.42;30.63;;;2.50;86.90;;;;;;5012456;28;20210;-78
2020/12/10 02:19:14;;;;;;;34.38;30.98;;;2.50;86.80;;;;;;5013575;28;20205;-78
2020/12/10 02:21:40;;;;;;;64.10;33.85;;;2.50;87.60;;;;;;5016994;28;20198;-78
2020/12/10 02:24:07;;;;;;;35.70;32.35;;;2.50;88.40;;;;;;5016775;28;20663;-78
2020/12/10 02:26:33;;;;;;;35.22;32.03;;;2.50;88.40;;;;;;5016501;28;20214;-78
2020/12/10 02:29:02;;;;;;;34.67;31.48;;;2.70;88.40;;;;;;5016893;28;20212;-78
2020/12/10 02:31:31;;;;;;;34.08;30.98;;;2.70;88.40;;;;;;5016753;28;20198;-78
2020/12/10 02:33:59;;;;;;;34.38;30.95;;;2.60;88.80;;;;;;5016510;28;20194;-78
2020/12/10 02:36:26;;;;;;;33.78;30.67;;;2.60;88.60;;;;;;5016415;28;20209;-78
2020/12/10 02:38:52;;;;;;;34.15;31.25;;;2.60;88.40;;;;;;5016844;28;20200;-78
2020/12/10 02:41:20;;;;;;;35.83;32.47;;;2.70;88.40;;;;;;5016557;28;20220;-78
2020/12/10 02:43:47;;;;;;;33.50;30.75;;;2.70;88.60;;;;;;5016823;28;20197;-78
2020/12/10 02:46:13;;;;;;;35.65;32.40;;;2.80;88.10;;;;;;5016466;28;20299;-78
2020/12/10 02:48:39;;;;;;;52.40;36.30;;;2.70;88.70;;;;;;5016608;28;20208;-78
2020/12/10 02:51:06;;;;;;;48.40;31.42;;;2.70;89.30;;;;;;5016369;28;20202;-78
2020/12/10 02:53:33;;;;;;;1854.35;272.40;;;2.70;94.20;;;;;;5016536;28;20194;-78
2020/12/10 02:56:00;;;;;;;35.53;32.22;;;2.80;94.70;;;;;;5015852;28;20613;-78
2020/12/10 02:58:27;;;;;;;263.10;57.65;;;2.80;94.50;;;;;;5016216;28;20205;-78
2020/12/10 03:00:54;;;;;;;36.35;32.83;;;2.90;92.80;;;;;;5016301;28;20222;-78
2020/12/10 03:03:20;;;;;;;95.80;37.05;;;2.90;92.50;;;;;;5016075;28;20204;-78
2020/12/10 03:05:46;;;;;;;35.08;31.67;;;2.80;91.60;;;;;;5015526;28;20195;-78
2020/12/10 03:08:13;;;;;;;34.63;31.45;;;2.80;93.50;;;;;;5016131;28;20198;-78
2020/12/10 03:10:39;;;;;;;37.55;33.85;;;2.70;91.50;;;;;;5016047;28;20655;-78
2020/12/10 03:13:06;;;;;;;37.65;34.05;;;2.80;90.20;;;;;;5016037;28;20201;-78
2020/12/10 03:15:33;;;;;;;36.10;32.50;;;2.80;89.90;;;;;;5015743;28;20682;-78
2020/12/10 03:17:59;;;;;;;35.30;31.70;;;2.80;90.00;;;;;;5015632;28;20186;-78
2020/12/10 03:20:26;;;;;;;393.58;69.20;;;2.80;91.90;;;;;;5015910;28;20218;-78
2020/12/10 03:22:52;;;;;;;35.97;32.28;;;2.90;91.50;;;;;;5015946;28;20205;-78
2020/12/10 03:25:18;;;;;;;36.05;32.50;;;2.90;92.20;;;;;;5015884;28;20238;-78
2020/12/10 03:27:46;;;;;;;36.88;33.33;;;2.70;91.40;;;;;;5015205;28;20695;-78
2020/12/10 03:30:12;;;;;;;38.33;34.50;;;2.70;90.50;;;;;;5015055;28;20186;-78
2020/12/10 03:32:40;;;;;;;37.75;33.95;;;2.60;90.50;;;;;;5015289;28;20205;-78
2020/12/10 03:35:06;;;;;;;38.72;34.95;;;2.70;91.90;;;;;;5015604;28;20689;-78
2020/12/10 03:37:32;;;;;;;36.72;33.47;;;2.70;90.70;;;;;;5015198;28;20214;-78
2020/12/10 03:39:59;;;;;;;40.20;36.20;;;2.70;89.80;;;;;;5015305;28;20583;-78
2020/12/10 03:42:25;;;;;;;38.10;34.30;;;2.70;89.00;;;;;;5015533;28;20202;-78
2020/12/10 03:44:52;;;;;;;40.05;35.92;;;2.70;89.20;;;;;;5015591;28;20202;-78
2020/12/10 03:47:18;;;;;;;464.00;80.47;;;2.60;88.80;;;;;;5018452;28;20214;-78
2020/12/10 03:49:45;;;;;;;39.35;35.28;;;2.70;91.60;;;;;;5021762;28;20190;-78
2020/12/10 03:52:12;;;;;;;38.55;34.47;;;2.70;90.70;;;;;;5018847;28;20212;-78
2020/12/10 03:54:38;;;;;;;38.72;33.95;;;2.70;93.20;;;;;;5015892;28;20198;-78
2020/12/10 03:57:04;;;;;;;36.83;33.20;;;2.60;91.30;;;;;;5015495;28;20225;-78
2020/12/10 03:59:31;;;;;;;55.63;35.90;;;2.70;91.30;;;;;;4996285;28;20202;-78
2020/12/10 04:01:57;;;;;;;38.35;34.35;;;2.70;91.30;;;;;;4995983;28;20198;-78
2020/12/10 04:04:23;;;;;;;39.08;34.97;;;2.70;90.70;;;;;;4996099;28;20195;-78
2020/12/10 04:06:50;;;;;;;39.47;35.50;;;2.60;92.40;;;;;;4995825;28;20227;-78
2020/12/10 04:09:17;;;;;;;35.33;31.80;;;2.60;91.60;;;;;;5013973;28;20193;-78
2020/12/10 04:11:43;;;;;;;39.03;35.13;;;2.60;90.70;;;;;;5015174;28;20191;-78
2020/12/10 04:14:10;;;;;;;39.67;35.75;;;2.60;90.50;;;;;;5015593;28;20202;-78
2020/12/10 04:16:36;;;;;;;37.53;33.88;;;2.60;90.60;;;;;;5015076;28;20706;-78
2020/12/10 04:19:03;;;;;;;41.05;36.95;;;2.50;90.80;;;;;;5014883;28;20301;-78
2020/12/10 04:21:29;;;;;;;617.00;92.80;;;2.50;91.20;;;;;;5014908;28;20244;-78
2020/12/10 04:23:57;;;;;;;55.45;37.95;;;2.60;95.90;;;;;;5015527;28;20205;-78
2020/12/10 04:26:23;;;;;;;40.28;36.08;;;2.60;96.10;;;;;;5015237;28;20214;-78
2020/12/10 04:28:49;;;;;;;37.33;33.60;;;2.60;94.30;;;;;;5015932;28;20565;-78
2020/12/10 04:31:17;;;;;;;40.03;36.17;;;2.60;93.50;;;;;;5015784;28;20198;-77
2020/12/10 04:33:44;;;;;;;41.13;35.22;;;2.60;95.00;;;;;;5016218;28;20202;-78
2020/12/10 04:36:10;;;;;;;40.25;36.05;;;2.60;93.80;;;;;;5016100;28;20588;-77
2020/12/10 04:38:37;;;;;;;41.58;37.47;;;2.80;93.30;;;;;;5015621;28;20206;-77
2020/12/10 04:41:06;;;;;;;41.28;36.85;;;2.80;92.70;;;;;;5014198;28;20210;-78
2020/12/10 04:43:33;;;;;;;39.83;35.55;;;2.80;92.30;;;;;;5013886;28;20198;-78
2020/12/10 04:46:01;;;;;;;42.58;38.17;;;2.70;92.00;;;;;;5014401;28;20228;-78
2020/12/10 04:48:29;;;;;;;109.88;41.92;;;2.80;92.20;;;;;;5014283;28;20190;-78
2020/12/10 04:50:58;;;;;;;38.88;34.63;;;2.80;92.10;;;;;;5014113;28;20205;-77
2020/12/10 04:53:26;;;;;;;41.10;36.80;;;2.80;91.60;;;;;;5014380;28;20285;-78
2020/12/10 04:55:53;;;;;;;67.03;38.63;;;2.90;93.40;;;;;;5013939;28;20582;-78
2020/12/10 04:58:20;;;;;;;39.78;35.78;;;2.80;93.20;;;;;;5014553;28;20725;-78
2020/12/10 05:00:47;;;;;;;39.58;35.47;;;2.70;93.30;;;;;;5014816;28;20574;-78
2020/12/10 05:03:15;;;;;;;42.88;38.30;;;2.60;92.70;;;;;;5014445;28;20768;-78
2020/12/10 05:05:41;;;;;;;39.13;35.17;;;2.60;92.60;;;;;;5013441;28;20213;-78
2020/12/10 05:08:08;;;;;;;40.55;36.47;;;2.80;92.00;;;;;;5014006;28;20198;-78
2020/12/10 05:10:43;;;;;;;38.75;34.88;;;2.80;91.40;;;;;;5014106;28;20201;-78
2020/12/10 05:13:11;;;;;;;41.17;36.78;;;2.80;90.90;;;;;;5014100;28;20201;-78
2020/12/10 05:15:39;;;;;;;37.20;33.53;;;2.70;91.00;;;;;;5013500;28;20194;-78
2020/12/10 05:18:07;;;;;;;86.40;38.47;;;2.60;91.40;;;;;;5013874;28;20206;-78
2020/12/10 05:20:39;;;;;;;38.47;34.75;;;2.60;93.00;;;;;;5013493;28;20213;-78
2020/12/10 05:23:07;;;;;;;278.77;60.53;;;2.50;92.10;;;;;;5013615;28;20204;-78
2020/12/10 05:25:48;;;;;;;59.30;35.63;;;2.50;93.30;;;;;;5013418;28;20216;-78
2020/12/10 05:28:15;;;;;;;39.67;35.05;;;2.50;92.70;;;;;;5013248;28;20189;-77
2020/12/10 05:30:44;;;;;;;39.40;35.42;;;2.50;92.80;;;;;;5013643;28;20218;-78
2020/12/10 05:33:12;;;;;;;38.60;34.63;;;2.50;92.10;;;;;;5013474;28;20198;-78
2020/12/10 05:35:39;;;;;;;41.05;36.63;;;2.60;92.00;;;;;;5013120;28;20656;-78
2020/12/10 05:38:18;;;;;;;41.15;36.45;;;2.60;91.60;;;;;;5013586;28;20201;-78
2020/12/10 05:40:44;;;;;;;38.80;34.78;;;2.70;91.30;;;;;;5005323;28;20304;-78
2020/12/10 05:43:22;;;;;;;39.25;35.35;;;2.80;91.10;;;;;;5013413;28;20202;-78
2020/12/10 05:45:52;;;;;;;41.90;36.35;;;2.90;90.90;;;;;;5013326;28;20229;-78
2020/12/10 05:48:20;;;;;;;79.78;40.50;;;2.80;91.60;;;;;;5013101;28;20201;-78
2020/12/10 05:50:48;;;;;;;85.60;40.45;;;2.70;91.80;;;;;;5012944;28;20245;-78
2020/12/10 05:53:14;;;;;;;77.07;40.40;;;2.70;91.90;;;;;;5013019;28;20198;-78
2020/12/10 05:55:42;;;;;;;42.05;37.05;;;2.60;92.10;;;;;;5012856;28;20659;-78
2020/12/10 05:58:09;;;;;;;47.75;39.75;;;2.60;91.90;;;;;;5013098;28;20331;-78
2020/12/10 06:00:37;;;;;;;42.33;37.72;;;2.70;91.00;;;;;;5013143;28;20313;-78
2020/12/10 06:03:05;;;;;;;44.17;37.20;;;2.50;90.70;;;;;;5013235;28;20631;-78
2020/12/10 06:05:31;;;;;;;46.03;41.03;;;2.40;91.10;;;;;;5012502;28;20216;-78
2020/12/10 06:08:02;;;;;;;51.13;39.90;;;2.40;91.30;;;;;;5012995;28;20206;-78
2020/12/10 06:10:30;;;;;;;49.38;39.95;;;2.30;91.20;;;;;;5013098;28;20316;-78
2020/12/10 06:12:58;;;;;;;42.88;37.92;;;2.30;91.30;;;;;;5012976;28;20202;-78
2020/12/10 06:15:26;;;;;;;45.88;38.20;;;2.30;91.20;;;;;;5012660;28;20194;-77
2020/12/10 06:18:00;;;;;;;137.43;50.13;;;2.30;91.90;;;;;;5012793;28;20217;-78
2020/12/10 06:20:35;;;;;;;45.00;38.88;;;2.40;91.10;;;;;;5012809;28;20224;-78
2020/12/10 06:23:35;;;;;;;40.55;36.22;;;2.50;93.30;;;;;;5013043;28;20197;-78
2020/12/10 06:26:35;;;;;;;1152.28;188.98;;;2.40;92.00;;;;;;5012766;28;20218;-78
2020/12/10 06:29:18;;;;;;;40.78;36.40;;;2.60;92.10;;;;;;4993411;28;20209;-78
2020/12/10 06:32:05;;;;;;;39.33;35.50;;;2.50;91.40;;;;;;4992918;28;20627;-77
2020/12/10 06:34:36;;;;;;;42.15;35.13;;;2.50;91.50;;;;;;4993437;28;20285;-78
2020/12/10 06:37:21;;;;;;;40.92;36.28;;;2.50;91.30;;;;;;5010042;28;20687;-78
2020/12/10 06:39:49;;;;;;;46.20;33.47;;;2.60;91.10;;;;;;5012836;28;20579;-78
2020/12/10 06:42:16;;;;;;;211.25;53.88;;;2.60;96.40;;;;;;5012622;28;20213;-78
2020/12/10 06:44:42;;;;;;;224.70;53.45;;;2.60;96.60;;;;;;5012822;28;20198;-78
2020/12/10 06:47:09;;;;;;;137.80;45.45;;;2.60;94.20;;;;;;5012182;28;20643;-78
2020/12/10 06:49:37;;;;;;;40.75;36.47;;;2.70;93.50;;;;;;5012409;28;20200;-77
2020/12/10 06:52:12;;;;;;;40.63;36.55;;;2.70;91.30;;;;;;5012759;28;20190;-78
2020/12/10 06:55:07;;;;;;;38.38;34.40;;;2.50;90.90;;;;;;5012788;28;20197;-78
2020/12/10 06:57:58;;;;;;;40.35;36.45;;;2.50;90.50;;;;;;5014736;28;20253;-78
2020/12/10 07:00:36;;;;;;;42.70;36.75;;;2.60;90.70;;;;;;5015032;28;20218;-78
2020/12/10 07:03:10;;;;;;;39.10;35.20;;;2.50;91.10;;;;;;5012739;28;20204;-78
2020/12/10 07:05:37;;;;;;;1999.90;569.58;;;2.50;90.90;;;;;;5013578;28;20213;-78
2020/12/10 07:08:07;;;;;;;45.55;36.75;;;2.60;93.90;;;;;;5016498;28;20280;-78
2020/12/10 07:10:39;;;;;;;42.13;37.60;;;2.70;95.90;;;;;;5016434;28;20198;-78
2020/12/10 07:13:05;;;;;;;81.38;42.03;;;2.80;93.90;;;;;;5016194;28;20198;-78
2020/12/10 07:15:32;;;;;;;39.20;35.10;;;2.90;92.90;;;;;;5016477;28;20198;-77
2020/12/10 07:18:01;;;;;;;44.60;35.10;;;2.90;92.50;;;;;;5016704;28;20651;-78
2020/12/10 07:20:29;;;;;;;61.70;37.22;;;2.80;91.90;;;;;;5016473;28;20214;-77
2020/12/10 07:22:56;;;;;;;40.70;35.70;;;2.90;92.00;;;;;;5015971;28;20202;-78
2020/12/10 07:25:22;;;;;;;44.60;37.88;;;3.00;91.70;;;;;;5015652;28;20191;-77
2020/12/10 07:27:49;;;;;;;43.90;37.70;;;2.90;90.80;;;;;;5015403;28;20222;-78
2020/12/10 07:30:17;;;;;;;39.42;35.30;;;2.90;90.30;;;;;;5015896;28;20562;-78
2020/12/10 07:32:44;;;;;;;39.13;35.13;;;2.90;90.60;;;;;;5015611;28;20221;-77
2020/12/10 07:35:12;;;;;;;45.40;36.13;;;2.90;90.20;;;;;;5015871;28;20670;-78
2020/12/10 07:37:39;;;;;;;37.60;33.60;;;2.90;90.20;;;;;;5017012;28;20218;-78
2020/12/10 07:40:10;;;;;;;40.30;34.70;;;2.90;90.00;;;;;;5017179;28;20204;-78
2020/12/10 07:42:36;;;;;;;1928.05;474.52;;;3.00;90.00;;;;;;5016519;28;20276;-78
2020/12/10 07:45:11;;;;;;;1621.97;216.07;;;3.00;99.80;;;;;;5017054;28;20186;-78
2020/12/10 07:47:38;;;;;;;51.45;39.08;;;3.00;98.10;;;;;;5017127;28;20307;-78
2020/12/10 07:50:20;;;;;;;42.10;35.92;;;3.10;99.40;;;;;;5016271;28;20208;-78
2020/12/10 07:52:48;;;;;;;37.55;33.40;;;3.10;97.80;;;;;;4996263;28;20664;-78
2020/12/10 07:55:17;;;;;;;36.95;33.03;;;3.20;96.60;;;;;;4996018;28;20268;-78
2020/12/10 07:57:52;;;;;;;38.00;33.95;;;3.20;95.70;;;;;;4995704;28;20219;-78
2020/12/10 08:00:24;;;;;;;41.47;35.35;;;3.40;95.10;;;;;;4996123;28;20222;-78
2020/12/10 08:03:03;;;;;;;39.92;35.70;;;3.30;93.40;;;;;;5007566;28;20225;-78
2020/12/10 08:05:29;;;;;;;40.28;35.97;;;3.30;92.30;;;;;;5014947;28;20689;-78
2020/12/10 08:07:56;;;;;;;41.03;36.63;;;3.40;92.10;;;;;;5014590;28;20632;-78
2020/12/10 08:10:24;;;;;;;40.88;36.63;;;3.50;90.80;;;;;;5014911;28;20190;-78
2020/12/10 08:13:14;;;;;;;328.85;57.70;;;3.50;90.20;;;;;;5014584;28;20651;-78
2020/12/10 08:15:43;;;;;;;39.92;35.90;;;3.40;90.40;;;;;;5014586;28;20194;-78
2020/12/10 08:18:12;;;;;;;40.33;35.97;;;3.40;89.90;;;;;;5014719;28;20194;-78
2020/12/10 08:20:42;;;;;;;42.55;38.03;;;3.50;88.70;;;;;;5015077;28;20332;-78
2020/12/10 08:23:08;;;;;;;40.95;36.75;;;3.60;87.60;;;;;;5014539;28;20194;-78
2020/12/10 08:25:34;;;;;;;39.22;35.13;;;3.50;87.30;;;;;;5014548;28;20202;-78
2020/12/10 08:28:03;;;;;;;48.20;38.47;;;3.40;88.70;;;;;;5014220;28;20217;-78
2020/12/10 08:30:29;;;;;;;41.80;37.30;;;3.40;89.30;;;;;;5014481;28;20225;-78
2020/12/10 08:32:58;;;;;;;39.90;35.38;;;3.50;91.00;;;;;;5014092;28;20201;-78
2020/12/10 08:35:25;;;;;;;37.17;33.58;;;3.60;89.90;;;;;;5014338;28;20607;-78
2020/12/10 08:37:52;;;;;;;106.15;39.53;;;3.60;89.70;;;;;;5014056;28;20217;-78
2020/12/10 08:40:27;;;;;;;37.25;33.30;;;3.70;92.20;;;;;;5014205;28;20217;-78
2020/12/10 08:42:54;;;;;;;68.20;36.92;;;3.70;89.90;;;;;;5014490;28;20256;-78
2020/12/10 08:45:32;;;;;;;88.60;37.90;;;3.50;92.10;;;;;;5014283;28;20236;-78
2020/12/10 08:48:00;;;;;;;37.28;33.65;;;3.50;92.00;;;;;;5014306;28;20194;-78
2020/12/10 08:50:27;;;;;;;37.63;33.67;;;3.60;90.80;;;;;;5014240;28;20201;-78
2020/12/10 08:53:05;;;;;;;33.10;30.17;;;3.60;88.40;;;;;;5013700;28;20291;-78
2020/12/10 08:55:40;;;;;;;28.85;25.98;;;3.60;88.40;;;;;;5013953;28;20208;-78
2020/12/10 08:58:07;;;;;;;28.23;25.88;;;3.60;92.00;;;;;;5014355;28;20201;-78
2020/12/10 09:00:37;;;;;;;33.20;30.35;;;3.70;89.60;;;;;;5013769;28;20214;-78
2020/12/10 09:03:05;;;;;;;32.75;29.63;;;3.70;86.50;;;;;;5013672;28;20190;-78
2020/12/10 09:05:34;;;;;;;35.53;32.42;;;3.70;86.20;;;;;;5013426;28;20245;-78
2020/12/10 09:08:00;;;;;;;36.80;33.40;;;3.70;85.30;;;;;;5013841;28;20201;-78
2020/12/10 09:10:29;;;;;;;36.83;33.42;;;3.60;84.70;;;;;;5013407;28;20583;-78
2020/12/10 09:12:56;;;;;;;34.67;31.45;;;3.50;84.50;;;;;;5013891;28;20198;-78
2020/12/10 09:15:23;;;;;;;39.35;35.55;;;3.60;88.00;;;;;;5013422;28;20201;-78
2020/12/10 09:17:49;;;;;;;38.95;35.40;;;3.60;86.90;;;;;;5013696;28;20218;-78
2020/12/10 09:20:17;;;;;;;37.38;33.58;;;3.70;86.80;;;;;;5012839;28;20215;-78
2020/12/10 09:22:44;;;;;;;35.65;32.45;;;3.70;87.20;;;;;;5013744;28;20198;-78
2020/12/10 09:25:10;;;;;;;38.13;34.22;;;3.80;86.20;;;;;;5013563;28;20198;-78
2020/12/10 09:27:36;;;;;;;33.75;30.85;;;3.90;86.50;;;;;;5012685;28;20219;-78
2020/12/10 09:30:05;;;;;;;29.95;27.58;;;4.00;84.80;;;;;;5013249;28;20201;-78
2020/12/10 09:32:34;;;;;;;29.90;27.60;;;4.00;84.50;;;;;;5013423;28;20256;-78
2020/12/10 09:35:01;;;;;;;30.40;28.23;;;4.10;83.20;;;;;;5013229;28;20190;-78
2020/12/10 09:37:28;;;;;;;31.13;28.42;;;4.20;81.60;;;;;;5013356;28;20642;-78
2020/12/10 09:39:54;;;;;;;30.92;28.42;;;4.30;81.40;;;;;;5013333;28;20190;-78
2020/12/10 09:42:21;;;;;;;28.80;26.75;;;4.30;83.10;;;;;;5013303;28;20224;-78
2020/12/10 09:44:47;;;;;;;29.48;27.35;;;4.50;82.60;;;;;;5013505;28;20191;-78
2020/12/10 09:47:14;;;;;;;30.23;28.13;;;4.70;80.20;;;;;;5013112;28;20214;-78
2020/12/10 09:49:40;;;;;;;118.70;36.88;;;4.80;78.80;;;;;;5013647;28;20215;-78
2020/12/10 09:52:07;;;;;;;30.23;27.63;;;4.60;83.70;;;;;;5013328;28;20527;-78
2020/12/10 09:54:47;;;;;;;29.92;27.73;;;4.60;83.00;;;;;;5012906;28;20557;-78
2020/12/10 09:57:29;;;;;;;29.40;27.38;;;4.70;80.90;;;;;;5013694;28;20231;-78
2020/12/10 09:59:56;;;;;;;30.58;28.17;;;4.70;79.10;;;;;;5014040;28;20204;-78
2020/12/10 10:02:23;;;;;;;29.75;27.55;;;4.70;79.80;;;;;;5014069;28;20312;-78
2020/12/10 10:04:49;;;;;;;30.23;28.13;;;4.80;79.70;;;;;;5013322;28;20204;-77
2020/12/10 10:07:16;;;;;;;31.38;28.95;;;5.00;78.90;;;;;;5018536;28;20654;-77
2020/12/10 10:09:44;;;;;;;34.25;31.38;;;5.20;80.70;;;;;;5019668;28;20220;-78
2020/12/10 10:12:11;;;;;;;30.55;28.25;;;5.10;78.20;;;;;;5014297;28;20204;-78
2020/12/10 10:14:37;;;;;;;31.70;29.30;;;5.00;79.60;;;;;;5013255;28;20729;-78
2020/12/10 10:17:07;;;;;;;30.58;28.30;;;4.90;78.10;;;;;;5013390;28;20219;-78
2020/12/10 10:19:34;;;;;;;31.70;29.13;;;4.80;76.80;;;;;;5013344;28;20238;-78
2020/12/10 10:22:01;;;;;;;32.00;29.58;;;4.60;77.70;;;;;;5013399;28;20233;-78
2020/12/10 10:24:28;;;;;;;32.30;29.95;;;4.60;78.50;;;;;;5013372;28;20210;-78
2020/12/10 10:26:56;;;;;;;29.95;27.92;;;4.70;79.20;;;;;;5012444;28;20243;-78
2020/12/10 10:29:22;;;;;;;28.80;26.70;;;4.60;77.30;;;;;;5012774;28;20205;-78
2020/12/10 10:31:49;;;;;;;29.70;27.35;;;4.50;80.70;;;;;;5012513;28;20211;-77
2020/12/10 10:34:16;;;;;;;30.65;28.35;;;4.60;79.50;;;;;;5013495;28;20280;-78
2020/12/10 10:36:43;;;;;;;30.88;28.55;;;4.60;81.70;;;;;;5012490;28;20571;-78
2020/12/10 10:39:10;;;;;;;32.67;29.98;;;4.60;80.70;;;;;;5013294;28;20264;-78
2020/12/10 10:41:41;;;;;;;32.30;29.65;;;4.60;79.90;;;;;;5015899;28;20303;-78
2020/12/10 10:44:08;;;;;;;31.65;29.35;;;4.60;78.90;;;;;;5017245;28;20200;-78
2020/12/10 10:46:34;;;;;;;34.13;31.52;;;4.70;78.10;;;;;;5016867;28;20223;-78
2020/12/10 10:49:01;;;;;;;33.75;30.98;;;4.70;78.50;;;;;;5016541;28;20204;-78
2020/12/10 10:51:27;;;;;;;33.65;31.05;;;4.90;78.50;;;;;;5016571;28;20323;-78
2020/12/10 10:53:53;;;;;;;32.10;29.75;;;5.00;78.10;;;;;;5016986;28;20205;-78
2020/12/10 10:56:21;;;;;;;32.80;30.05;;;5.20;78.00;;;;;;5016385;28;20214;-78
2020/12/10 10:58:47;;;;;;;32.95;30.23;;;5.10;80.00;;;;;;5016551;28;20202;-78
2020/12/10 11:01:15;;;;;;;33.08;30.48;;;5.20;80.00;;;;;;5016196;28;20220;-78
2020/12/10 11:03:41;;;;;;;166.75;45.10;;;5.20;79.80;;;;;;5016027;28;20209;-78
2020/12/10 11:06:08;;;;;;;32.70;30.15;;;5.10;83.40;;;;;;5015885;28;20226;-78
2020/12/10 11:08:35;;;;;;;32.55;29.88;;;5.00;82.20;;;;;;5015966;28;20197;-77
2020/12/10 11:11:01;;;;;;;33.97;31.30;;;5.00;79.60;;;;;;5015805;28;20657;-77
2020/12/10 11:13:27;;;;;;;34.70;31.83;;;4.80;79.50;;;;;;5016153;28;20196;-78
2020/12/10 11:15:54;;;;;;;35.22;32.33;;;5.00;79.50;;;;;;5015575;28;20216;-78
2020/12/10 11:18:21;;;;;;;34.65;31.90;;;5.00;80.20;;;;;;5016109;28;20198;-78
2020/12/10 11:20:47;;;;;;;34.25;31.45;;;5.00;80.40;;;;;;5015693;28;20246;-78
2020/12/10 11:23:14;;;;;;;223.13;48.47;;;5.00;81.60;;;;;;5015540;28;20691;-78
2020/12/10 11:25:40;;;;;;;33.42;30.67;;;5.10;83.00;;;;;;5015729;28;20574;-78
2020/12/10 11:28:06;;;;;;;32.08;29.48;;;5.10;85.60;;;;;;5015726;28;20284;-78
2020/12/10 11:30:33;;;;;;;84.20;35.40;;;5.10;82.00;;;;;;5015676;28;20194;-78
2020/12/10 11:32:59;;;;;;;34.10;31.05;;;5.10;81.20;;;;;;5015267;28;20727;-78
2020/12/10 11:35:26;;;;;;;34.53;31.83;;;5.10;87.60;;;;;;5015259;28;20679;-78
2020/12/10 11:37:55;;;;;;;34.13;31.00;;;5.20;83.90;;;;;;5015567;28;20603;-78
2020/12/10 11:40:22;;;;;;;36.08;33.00;;;5.20;82.40;;;;;;5015594;28;20204;-78
2020/12/10 11:42:49;;;;;;;34.67;31.42;;;5.30;83.00;;;;;;5015188;28;20196;-78
2020/12/10 11:45:17;;;;;;;35.15;32.10;;;5.10;84.20;;;;;;5015203;28;20259;-78
2020/12/10 11:47:43;;;;;;;34.83;31.92;;;5.10;81.90;;;;;;5015148;28;20224;-78
2020/12/10 11:50:18;;;;;;;34.75;31.92;;;5.20;81.50;;;;;;5015657;28;20201;-78
2020/12/10 11:52:46;;;;;;;35.33;32.03;;;5.20;80.90;;;;;;5014867;28;20192;-78
2020/12/10 11:55:13;;;;;;;37.55;34.33;;;5.10;84.40;;;;;;5015322;28;20198;-78
2020/12/10 11:57:39;;;;;;;36.33;33.20;;;5.00;81.50;;;;;;5015155;28;20254;-78
2020/12/10 12:00:06;;;;;;;36.85;33.65;;;5.00;80.30;;;;;;5015141;28;20204;-78
2020/12/10 12:02:33;;;;;;;38.97;35.65;;;5.10;80.40;;;;;;5014526;28;20218;-78
2020/12/10 12:04:59;;;;;;;37.90;34.08;;;5.00;82.00;;;;;;5015237;28;20661;-78
2020/12/10 12:07:25;;;;;;;38.20;34.58;;;5.00;89.00;;;;;;5014837;28;20217;-78
2020/12/10 12:09:53;;;;;;;39.63;35.90;;;5.00;84.80;;;;;;5014004;28;20199;-78
2020/12/10 12:12:19;;;;;;;39.13;35.38;;;5.00;83.30;;;;;;5014865;28;20198;-78
2020/12/10 12:14:45;;;;;;;39.70;36.10;;;5.00;82.70;;;;;;5014578;28;20196;-78
2020/12/10 12:17:12;;;;;;;37.42;34.10;;;5.00;82.20;;;;;;5014995;28;20210;-78
2020/12/10 12:19:38;;;;;;;37.25;33.85;;;5.00;81.50;;;;;;5015255;28;20212;-78
2020/12/10 12:22:05;;;;;;;37.80;34.45;;;4.90;81.00;;;;;;5014388;28;20212;-78
2020/12/10 12:24:31;;;;;;;36.88;33.78;;;5.20;79.40;;;;;;5015091;28;20200;-78
2020/12/10 12:26:59;;;;;;;36.67;33.42;;;5.30;78.30;;;;;;5014413;28;20590;-78
2020/12/10 12:29:25;;;;;;;39.15;35.47;;;5.20;79.00;;;;;;5014373;28;20200;-78
2020/12/10 12:31:51;;;;;;;36.60;33.40;;;5.40;79.40;;;;;;5014510;28;20194;-78
2020/12/10 12:34:17;;;;;;;36.03;33.05;;;5.30;83.00;;;;;;5014525;28;20200;-78
2020/12/10 12:36:45;;;;;;;38.38;34.90;;;5.20;82.20;;;;;;5014266;28;20216;-78
2020/12/10 12:39:13;;;;;;;37.30;33.78;;;5.20;81.90;;;;;;5014268;28;20242;-78
2020/12/10 12:41:40;;;;;;;37.08;33.72;;;5.20;81.70;;;;;;5014281;28;20222;-78